createdAt,value
2018-04-18T00:03:01.743Z,12.26
2018-04-18T00:08:02.709Z,12.35
2018-04-18T00:13:03.677Z,12.21
2018-04-18T00:18:04.656Z,12.31
2018-04-18T00:23:05.665Z,12.21
2018-04-18T00:28:06.607Z,12.20
2018-04-18T00:33:07.545Z,12.17
2018-04-18T00:38:08.497Z,12.28
2018-04-18T00:43:09.431Z,12.07
2018-04-18T00:48:10.413Z,12.08
2018-04-18T00:53:11.372Z,12.18
2018-04-18T00:58:12.343Z,12.20
2018-04-18T01:03:13.305Z,12.13
2018-04-18T01:08:14.263Z,12.27
2018-04-18T01:13:15.213Z,12.48
2018-04-18T01:18:16.197Z,12.47
2018-04-18T01:23:17.189Z,12.48
2018-04-18T01:28:18.136Z,12.34
2018-04-18T01:33:19.097Z,12.43
2018-04-18T01:38:20.070Z,12.12
2018-04-18T01:43:21.015Z,12.21
2018-04-18T01:48:21.958Z,12.12
2018-04-18T01:53:22.916Z,12.17
2018-04-18T01:58:23.884Z,12.04
2018-04-18T02:03:24.832Z,12.43
2018-04-18T02:08:25.796Z,12.50
2018-04-18T02:13:26.742Z,12.78
2018-04-18T02:18:27.684Z,12.82
2018-04-18T02:23:28.655Z,12.80
2018-04-18T02:28:29.610Z,12.79
2018-04-18T02:33:30.567Z,12.48
2018-04-18T02:38:31.536Z,11.94
2018-04-18T02:43:32.488Z,11.92
2018-04-18T02:48:33.443Z,11.96
2018-04-18T02:53:34.406Z,11.97
2018-04-18T02:58:35.384Z,11.89
2018-04-18T03:03:36.375Z,11.86
2018-04-18T03:08:37.336Z,11.66
2018-04-18T03:13:38.301Z,11.54
2018-04-18T03:18:39.267Z,11.60
2018-04-18T03:23:40.227Z,11.81
2018-04-18T03:28:41.176Z,11.77
2018-04-18T03:33:42.971Z,11.70
2018-04-18T03:38:43.909Z,11.59
2018-04-18T03:43:44.881Z,11.53
2018-04-18T03:48:45.824Z,11.45
2018-04-18T03:53:46.764Z,11.54
2018-04-18T03:58:47.748Z,11.55
2018-04-18T04:03:48.674Z,11.49
2018-04-18T04:08:49.634Z,11.36
2018-04-18T04:13:50.583Z,11.47
2018-04-18T04:19:03.897Z,11.33
2018-04-18T04:24:17.260Z,11.33
2018-04-18T04:29:18.196Z,11.44
2018-04-18T04:34:19.151Z,11.41
2018-04-18T04:39:20.090Z,11.49
2018-04-18T04:44:21.036Z,11.55
2018-04-18T04:49:22.004Z,11.59
2018-04-18T04:54:22.988Z,11.37
2018-04-18T04:59:24.006Z,11.73
2018-04-18T05:04:24.928Z,11.88
2018-04-18T05:09:25.909Z,11.99
2018-04-18T05:14:26.864Z,11.91
2018-04-18T05:19:27.820Z,12.20
2018-04-18T05:24:28.806Z,12.24
2018-04-18T05:29:29.745Z,12.44
2018-04-18T05:34:30.700Z,12.60
2018-04-18T05:39:31.662Z,12.58
2018-04-18T05:44:32.626Z,12.68
2018-04-18T05:49:33.584Z,12.65
2018-04-18T05:54:34.569Z,12.79
2018-04-18T05:59:35.556Z,13.03
2018-04-18T06:04:36.510Z,13.17
2018-04-18T06:09:37.462Z,13.30
2018-04-18T06:14:38.423Z,13.37
2018-04-18T06:19:39.416Z,13.61
2018-04-18T06:24:40.389Z,13.63
2018-04-18T06:29:41.345Z,13.98
2018-04-18T06:34:42.304Z,14.23
2018-04-18T06:39:43.263Z,14.35
2018-04-18T06:44:44.207Z,14.43
2018-04-18T06:49:45.151Z,14.50
2018-04-18T06:54:46.110Z,14.62
2018-04-18T06:59:47.087Z,14.95
2018-04-18T07:04:48.068Z,14.88
2018-04-18T07:09:49.049Z,15.13
2018-04-18T07:14:50.012Z,15.47
2018-04-18T07:19:50.969Z,15.62
2018-04-18T07:24:51.934Z,15.62
2018-04-18T07:29:52.924Z,15.88
2018-04-18T07:34:53.911Z,16.11
2018-04-18T07:39:54.881Z,16.25
2018-04-18T07:44:55.830Z,16.42
2018-04-18T07:49:56.792Z,16.46
2018-04-18T07:54:57.784Z,16.70
2018-04-18T07:59:58.791Z,17.07
2018-04-18T08:04:59.746Z,17.27
2018-04-18T08:10:00.700Z,17.35
2018-04-18T08:15:01.647Z,17.59
2018-04-18T08:20:02.674Z,17.62
2018-04-18T08:25:03.655Z,17.76
2018-04-18T08:30:04.624Z,18.00
2018-04-18T08:35:05.653Z,18.26
2018-04-18T08:40:06.625Z,18.19
2018-04-18T08:45:07.603Z,18.34
2018-04-18T08:50:08.589Z,18.53
2018-04-18T08:55:09.535Z,18.56
2018-04-18T09:00:10.525Z,18.67
2018-04-18T09:05:11.477Z,18.83
2018-04-18T09:10:12.403Z,18.95
2018-04-18T09:15:13.374Z,19.03
2018-04-18T09:20:14.349Z,19.25
2018-04-18T09:25:15.332Z,19.25
2018-04-18T09:30:16.318Z,19.43
2018-04-18T09:35:17.268Z,19.31
2018-04-18T09:40:18.253Z,19.08
2018-04-18T09:45:19.200Z,19.56
2018-04-18T09:50:20.173Z,19.29
2018-04-18T09:55:21.135Z,19.46
2018-04-18T10:00:28.336Z,19.55
2018-04-18T10:05:29.292Z,19.51
2018-04-18T10:10:30.244Z,19.64
2018-04-18T10:15:31.188Z,19.86
2018-04-18T10:20:32.136Z,19.99
2018-04-18T10:25:33.137Z,20.13
2018-04-18T10:30:34.100Z,19.88
2018-04-18T10:35:35.077Z,20.38
2018-04-18T10:40:36.027Z,20.27
2018-04-18T10:45:36.986Z,20.75
2018-04-18T10:50:37.918Z,20.61
2018-04-18T10:55:38.864Z,21.05
2018-04-18T11:00:39.896Z,21.03
2018-04-18T11:05:40.853Z,21.40
2018-04-18T11:10:41.971Z,21.39
2018-04-18T11:15:42.945Z,21.87
2018-04-18T11:20:43.886Z,21.95
2018-04-18T11:25:44.867Z,22.24
2018-04-18T11:30:46.076Z,22.29
2018-04-18T11:35:47.036Z,22.02
2018-04-18T11:40:47.983Z,22.53
2018-04-18T11:45:48.945Z,22.65
2018-04-18T11:50:49.903Z,22.63
2018-04-18T11:55:50.857Z,22.90
2018-04-18T12:00:51.846Z,22.84
2018-04-18T12:05:52.817Z,23.23
2018-04-18T12:10:53.814Z,22.99
2018-04-18T12:15:54.768Z,23.40
2018-04-18T12:20:55.773Z,24.17
2018-04-18T12:25:56.755Z,23.85
2018-04-18T12:30:57.701Z,24.04
2018-04-18T12:35:58.672Z,23.88
2018-04-18T12:40:59.660Z,24.18
2018-04-18T12:46:00.664Z,24.54
2018-04-18T12:51:01.635Z,24.24
2018-04-18T12:56:02.618Z,24.39
2018-04-18T13:01:03.632Z,24.43
2018-04-18T13:06:04.579Z,25.07
2018-04-18T13:11:05.551Z,25.49
2018-04-18T13:16:06.517Z,24.78
2018-04-18T13:21:07.490Z,25.03
2018-04-18T13:26:08.471Z,25.79
2018-04-18T13:31:09.493Z,25.42
2018-04-18T13:36:10.468Z,26.72
2018-04-18T13:41:11.443Z,24.75
2018-04-18T13:46:12.439Z,25.02
2018-04-18T13:51:13.418Z,25.45
2018-04-18T13:56:14.417Z,25.29
2018-04-18T14:01:15.453Z,26.14
2018-04-18T14:06:16.428Z,26.67
2018-04-18T14:11:17.385Z,27.38
2018-04-18T14:16:18.389Z,26.83
2018-04-18T14:21:19.365Z,26.34
2018-04-18T14:26:20.343Z,26.73
2018-04-18T14:31:21.352Z,26.68
2018-04-18T14:36:22.345Z,26.78
2018-04-18T14:41:23.309Z,26.68
2018-04-18T14:46:24.288Z,26.58
2018-04-18T14:51:25.265Z,27.42
2018-04-18T14:56:26.247Z,27.07
2018-04-18T15:01:27.272Z,27.50
2018-04-18T15:06:28.221Z,26.91
2018-04-18T15:11:29.177Z,26.96
2018-04-18T15:16:30.151Z,26.05
2018-04-18T15:21:31.103Z,26.88
2018-04-18T15:26:32.079Z,26.75
2018-04-18T15:31:33.043Z,26.35
2018-04-18T15:36:33.991Z,26.28
2018-04-18T15:41:34.967Z,26.50
2018-04-18T15:46:35.926Z,26.32
2018-04-18T15:51:36.902Z,26.13
2018-04-18T15:56:37.893Z,26.34
2018-04-18T16:01:38.936Z,25.72
2018-04-18T16:06:39.935Z,25.96
2018-04-18T16:11:40.931Z,25.75
2018-04-18T16:16:41.904Z,25.45
2018-04-18T16:21:42.901Z,25.42
2018-04-18T16:26:43.903Z,25.50
2018-04-18T16:31:44.888Z,25.54
2018-04-18T16:36:45.877Z,25.26
2018-04-18T16:41:46.888Z,24.60
2018-04-18T16:46:47.869Z,24.70
2018-04-18T16:51:48.904Z,24.08
2018-04-18T16:56:49.899Z,23.66
2018-04-18T17:01:50.940Z,23.61
2018-04-18T17:06:52.001Z,23.33
2018-04-18T17:11:52.912Z,23.33
2018-04-18T17:16:53.901Z,23.23
2018-04-18T17:21:54.953Z,22.94
2018-04-18T17:26:55.939Z,22.83
2018-04-18T17:31:56.907Z,22.45
2018-04-18T17:36:57.917Z,22.68
2018-04-18T17:41:58.904Z,22.55
2018-04-18T17:46:59.900Z,22.30
2018-04-18T17:52:00.893Z,22.03
2018-04-18T17:57:01.874Z,21.88
2018-04-18T18:02:02.894Z,21.74
2018-04-18T18:07:03.905Z,21.68
2018-04-18T18:12:04.942Z,21.51
2018-04-18T18:17:05.915Z,21.44
2018-04-18T18:22:06.917Z,21.27
2018-04-18T18:27:07.973Z,21.12
2018-04-18T18:32:09.035Z,21.00
2018-04-18T18:37:10.056Z,20.80
2018-04-18T18:42:11.060Z,20.64
2018-04-18T18:47:12.109Z,20.81
2018-04-18T18:52:13.142Z,20.56
2018-04-18T18:57:14.124Z,20.51
2018-04-18T19:02:15.165Z,20.41
2018-04-18T19:07:16.184Z,20.41
2018-04-18T19:12:17.156Z,20.33
2018-04-18T19:17:18.163Z,20.31
2018-04-18T19:22:19.195Z,20.06
2018-04-18T19:27:20.478Z,19.99
2018-04-18T19:32:21.454Z,20.09
2018-04-18T19:37:22.492Z,19.82
2018-04-18T19:42:23.499Z,19.08
2018-04-18T19:47:24.532Z,19.34
2018-04-18T19:52:25.573Z,19.43
2018-04-18T19:57:26.588Z,19.30
2018-04-18T20:02:27.632Z,19.28
2018-04-18T20:07:28.602Z,19.21
2018-04-18T20:12:29.633Z,19.31
2018-04-18T20:17:30.622Z,19.09
2018-04-18T20:22:31.701Z,18.96
2018-04-18T20:27:32.648Z,18.51
2018-04-18T20:32:33.623Z,18.58
2018-04-18T20:37:34.640Z,18.18
2018-04-18T20:42:35.679Z,18.30
2018-04-18T20:47:36.665Z,18.16
2018-04-18T20:52:37.661Z,18.12
2018-04-18T20:57:38.660Z,17.47
2018-04-18T21:02:39.693Z,17.93
2018-04-18T21:07:41.634Z,18.11
2018-04-18T21:12:42.644Z,17.92
2018-04-18T21:17:43.917Z,17.47
2018-04-18T21:22:44.931Z,17.79
2018-04-18T21:27:45.952Z,17.81
2018-04-18T21:32:46.984Z,17.92
2018-04-18T21:37:47.948Z,17.41
2018-04-18T21:42:48.954Z,17.58
2018-04-18T21:47:49.932Z,17.41
2018-04-18T21:52:50.927Z,17.25
2018-04-18T21:57:51.887Z,17.51
2018-04-18T22:02:52.904Z,17.46
2018-04-18T22:07:53.903Z,17.43
2018-04-18T22:12:54.888Z,17.12
2018-04-18T22:17:55.871Z,17.39
2018-04-18T22:22:56.830Z,17.20
2018-04-18T22:27:57.836Z,17.06
2018-04-18T22:32:58.793Z,17.06
2018-04-18T22:37:59.793Z,16.96
2018-04-18T22:43:00.760Z,16.65
2018-04-18T22:48:01.732Z,16.63
2018-04-18T22:53:02.716Z,16.59
2018-04-18T22:58:03.676Z,16.56
2018-04-18T23:03:04.651Z,16.27
2018-04-18T23:08:05.631Z,16.58
2018-04-18T23:13:06.606Z,16.58
2018-04-18T23:18:07.597Z,16.40
2018-04-18T23:23:08.564Z,16.48
2018-04-18T23:28:09.538Z,16.24
2018-04-18T23:33:10.499Z,16.55
2018-04-18T23:38:11.455Z,16.40
2018-04-18T23:43:12.417Z,16.02
2018-04-18T23:48:13.401Z,16.19
2018-04-18T23:53:14.353Z,16.16
2018-04-18T23:58:15.306Z,16.19
